Station Historical Data
Daily Summary for September 18, 2017 Units:  English    Metric   Both
« Previous Day
Next Day »
Daily Weekly Monthly Yearly Custom
  High: Low: Average:
Temperature: 82.5 °F 62.1 °F 71.6 °F
Dew Point: 67.6 °F 59.6 °F 63.7 °F
Humidity: 93% 57% 78%
Wind Speed: 5.0mph 0.0mph 0.6mph
Wind Gust: 7.0mph - -
Wind- - WSW
Pressure: 30.08 in 30.01 in -
Precipitation: 0.00 in    
Historical Graphs
 
 
Tabular Data for September 18, 2017
Time Temperature Dew Point Pressure Wind Wind Speed Wind Gust Humidity Rainfall Rate (Hourly)
00:04 66.7 °F 62.0 °F 30.08 in Calm     85% 0.00 in
00:09 66.7 °F 62.0 °F 30.07 in Calm     85% 0.00 in
00:14 66.7 °F 62.0 °F 30.07 in Calm     85% 0.00 in
00:19 66.8 °F 62.5 °F 30.07 in Calm     86% 0.00 in
00:24 66.8 °F 62.1 °F 30.07 in Calm     85% 0.00 in
00:29 66.7 °F 62.0 °F 30.07 in Calm     85% 0.00 in
00:34 66.7 °F 62.4 °F 30.07 in Calm     86% 0.00 in
00:39 66.7 °F 62.4 °F 30.06 in Calm     86% 0.00 in
00:44 66.5 °F 62.2 °F 30.06 in Calm     86% 0.00 in
00:49 66.3 °F 62.0 °F 30.06 in Calm     86% 0.00 in
00:54 66.3 °F 62.3 °F 30.06 in Calm     87% 0.00 in
00:59 65.9 °F 61.6 °F 30.06 in Calm     86% 0.00 in
01:04 65.7 °F 61.7 °F 30.06 in Calm     87% 0.00 in
01:09 65.4 °F 61.4 °F 30.06 in Calm     87% 0.00 in
01:14 65.2 °F 61.2 °F 30.06 in Calm     87% 0.00 in
01:19 65.0 °F 61.4 °F 30.06 in Calm     88% 0.00 in
01:24 65.0 °F 61.4 °F 30.06 in Calm     88% 0.00 in
01:29 64.9 °F 61.3 °F 30.06 in Calm     88% 0.00 in
01:34 64.8 °F 61.5 °F 30.06 in Calm     89% 0.00 in
01:39 64.7 °F 61.4 °F 30.06 in Calm     89% 0.00 in
01:44 64.5 °F 61.2 °F 30.06 in Calm     89% 0.00 in
01:49 64.4 °F 61.1 °F 30.06 in Calm     89% 0.00 in
01:54 64.3 °F 61.0 °F 30.06 in Calm     89% 0.00 in
01:59 64.1 °F 60.8 °F 30.06 in Calm     89% 0.00 in
02:04 64.0 °F 61.0 °F 30.06 in Calm     90% 0.00 in
02:09 63.9 °F 60.9 °F 30.06 in Calm     90% 0.00 in
02:14 63.9 °F 60.9 °F 30.06 in Calm     90% 0.00 in
02:19 63.7 °F 60.7 °F 30.05 in Calm     90% 0.00 in
02:24 63.7 °F 60.7 °F 30.05 in Calm     90% 0.00 in
02:34 63.7 °F 60.7 °F 30.05 in Calm     90% 0.00 in
02:39 63.6 °F 60.6 °F 30.05 in Calm     90% 0.00 in
02:44 63.6 °F 60.9 °F 30.05 in Calm     91% 0.00 in
02:49 63.7 °F 61.0 °F 30.05 in Calm     91% 0.00 in
02:54 63.7 °F 61.0 °F 30.04 in Calm     91% 0.00 in
02:59 63.4 °F 60.7 °F 30.04 in Calm     91% 0.00 in
03:04 63.4 °F 60.7 °F 30.04 in Calm     91% 0.00 in
03:09 63.4 °F 60.7 °F 30.04 in Calm     91% 0.00 in
03:14 63.5 °F 60.8 °F 30.04 in Calm     91% 0.00 in
03:19 63.6 °F 60.9 °F 30.04 in Calm     91% 0.00 in
03:24 63.4 °F 60.7 °F 30.04 in Calm     91% 0.00 in
03:29 63.4 °F 60.7 °F 30.04 in Calm     91% 0.00 in
03:34 63.5 °F 60.8 °F 30.04 in Calm     91% 0.00 in
03:39 63.5 °F 61.1 °F 30.04 in Calm     92% 0.00 in
03:44 63.5 °F 60.8 °F 30.03 in Calm     91% 0.00 in
03:49 63.2 °F 60.5 °F 30.03 in Calm     91% 0.00 in
03:54 63.2 °F 60.5 °F 30.04 in Calm     91% 0.00 in
03:59 63.0 °F 60.3 °F 30.04 in Calm     91% 0.00 in
04:04 63.1 °F 60.7 °F 30.04 in Calm     92% 0.00 in
04:09 62.9 °F 60.5 °F 30.04 in Calm     92% 0.00 in
04:14 63.0 °F 60.6 °F 30.04 in Calm     92% 0.00 in
04:19 62.7 °F 60.0 °F 30.04 in Calm     91% 0.00 in
04:24 62.9 °F 60.5 °F 30.04 in Calm     92% 0.00 in
04:29 63.1 °F 60.7 °F 30.04 in Calm     92% 0.00 in
04:34 62.7 °F 60.3 °F 30.04 in Calm     92% 0.00 in
04:39 62.5 °F 59.8 °F 30.04 in Calm     91% 0.00 in
04:44 62.5 °F 60.1 °F 30.04 in Calm     92% 0.00 in
04:49 62.3 °F 59.6 °F 30.04 in Calm     91% 0.00 in
04:54 62.3 °F 59.9 °F 30.04 in Calm     92% 0.00 in
04:59 62.3 °F 59.9 °F 30.04 in Calm     92% 0.00 in
05:04 62.4 °F 60.0 °F 30.04 in Calm     92% 0.00 in
05:09 62.3 °F 59.9 °F 30.04 in Calm     92% 0.00 in
05:14 62.3 °F 59.9 °F 30.04 in Calm     92% 0.00 in
05:19 62.3 °F 59.9 °F 30.04 in Calm     92% 0.00 in
05:24 62.3 °F 59.9 °F 30.04 in Calm     92% 0.00 in
05:29 62.1 °F 59.7 °F 30.05 in Calm     92% 0.00 in
05:34 62.1 °F 59.7 °F 30.05 in Calm     92% 0.00 in
05:39 62.1 °F 59.7 °F 30.05 in Calm     92% 0.00 in
05:44 62.3 °F 60.2 °F 30.05 in Calm     93% 0.00 in
05:49 62.4 °F 60.3 °F 30.05 in Calm     93% 0.00 in
05:54 62.6 °F 60.2 °F 30.05 in Calm     92% 0.00 in
05:59 62.8 °F 60.4 °F 30.05 in Calm     92% 0.00 in
06:04 62.7 °F 60.3 °F 30.05 in Calm     92% 0.00 in
06:09 62.7 °F 60.3 °F 30.05 in Calm     92% 0.00 in
06:14 62.7 °F 60.3 °F 30.05 in Calm     92% 0.00 in
06:19 62.7 °F 60.3 °F 30.05 in Calm     92% 0.00 in
06:24 62.6 °F 60.2 °F 30.05 in Calm     92% 0.00 in
06:29 62.6 °F 60.2 °F 30.05 in Calm     92% 0.00 in
06:34 62.7 °F 60.3 °F 30.05 in Calm     92% 0.00 in
06:39 62.7 °F 60.3 °F 30.05 in Calm     92% 0.00 in
06:44 62.7 °F 60.3 °F 30.05 in Calm     92% 0.00 in
06:49 62.9 °F 60.8 °F 30.05 in Calm     93% 0.00 in
06:54 62.9 °F 60.8 °F 30.06 in Calm     93% 0.00 in
06:59 62.9 °F 60.5 °F 30.06 in Calm     92% 0.00 in
07:04 62.9 °F 60.5 °F 30.06 in Calm     92% 0.00 in
07:09 62.8 °F 60.4 °F 30.06 in Calm     92% 0.00 in
07:14 62.9 °F 60.5 °F 30.06 in Calm     92% 0.00 in
07:19 63.1 °F 60.7 °F 30.07 in Calm     92% 0.00 in
07:24 63.2 °F 60.8 °F 30.07 in Calm     92% 0.00 in
07:29 63.3 °F 60.9 °F 30.06 in Calm     92% 0.00 in
07:34 63.4 °F 61.0 °F 30.06 in Calm     92% 0.00 in
07:39 63.5 °F 61.1 °F 30.06 in Calm     92% 0.00 in
07:44 63.6 °F 61.2 °F 30.06 in Calm     92% 0.00 in
07:49 63.7 °F 61.3 °F 30.06 in Calm     92% 0.00 in
07:54 64.0 °F 61.6 °F 30.06 in Calm     92% 0.00 in
07:59 64.2 °F 61.8 °F 30.07 in Calm     92% 0.00 in
08:04 64.4 °F 61.7 °F 30.06 in Calm     91% 0.00 in
08:09 64.6 °F 61.9 °F 30.06 in Calm     91% 0.00 in
08:14 64.9 °F 62.2 °F 30.06 in Calm     91% 0.00 in
08:19 65.2 °F 62.2 °F 30.06 in Calm     90% 0.00 in
08:24 65.6 °F 62.6 °F 30.06 in Calm     90% 0.00 in
08:29 66.1 °F 62.8 °F 30.06 in Calm   3.0 mph 89% 0.00 in
08:34 66.4 °F 62.7 °F 30.06 in SSE 1.0 mph 4.0 mph 88% 0.00 in
08:39 67.0 °F 63.3 °F 30.06 in SSE 1.0 mph 4.0 mph 88% 0.00 in
08:44 67.4 °F 63.4 °F 30.06 in Calm   3.0 mph 87% 0.00 in
08:49 68.1 °F 63.8 °F 30.07 in Calm     86% 0.00 in
08:54 68.7 °F 64.0 °F 30.06 in Calm     85% 0.00 in
08:59 69.1 °F 64.1 °F 30.06 in Calm     84% 0.00 in
09:04 69.5 °F 63.8 °F 30.06 in Calm     82% 0.00 in
09:09 69.8 °F 64.4 °F 30.05 in Calm     83% 0.00 in
09:14 70.5 °F 64.7 °F 30.06 in Calm     82% 0.00 in
09:19 71.1 °F 64.6 °F 30.06 in Calm     80% 0.00 in
09:24 71.7 °F 65.2 °F 30.06 in Calm     80% 0.00 in
09:29 72.0 °F 64.8 °F 30.06 in Calm     78% 0.00 in
09:34 72.6 °F 65.7 °F 30.07 in Calm     79% 0.00 in
09:39 73.2 °F 65.6 °F 30.07 in Calm   4.0 mph 77% 0.00 in
09:44 73.6 °F 65.6 °F 30.07 in SSE 1.0 mph 4.0 mph 76% 0.00 in
09:49 74.1 °F 66.0 °F 30.07 in South 2.0 mph 4.0 mph 76% 0.00 in
09:54 74.5 °F 66.1 °F 30.07 in WSW 2.0 mph 3.0 mph 75% 0.00 in
09:59 75.0 °F 65.8 °F 30.07 in SW 2.0 mph 4.0 mph 73% 0.00 in
10:04 75.4 °F 66.1 °F 30.07 in Calm   4.0 mph 73% 0.00 in
10:09 75.7 °F 65.6 °F 30.07 in SW 1.0 mph 4.0 mph 71% 0.00 in
10:14 75.8 °F 65.7 °F 30.07 in SW 1.0 mph 5.0 mph 71% 0.00 in
10:19 76.0 °F 65.5 °F 30.07 in SW 2.0 mph 5.0 mph 70% 0.00 in
10:24 76.4 °F 65.9 °F 30.06 in SW 3.0 mph 6.0 mph 70% 0.00 in
10:29 76.4 °F 66.3 °F 30.06 in SW 2.0 mph 5.0 mph 71% 0.00 in
10:34 76.7 °F 66.2 °F 30.06 in Calm   5.0 mph 70% 0.00 in
10:39 76.9 °F 66.0 °F 30.06 in SW 2.0 mph 5.0 mph 69% 0.00 in
10:44 76.9 °F 66.0 °F 30.06 in WSW 2.0 mph 5.0 mph 69% 0.00 in
10:49 77.2 °F 66.7 °F 30.06 in WNW 2.0 mph 4.0 mph 70% 0.00 in
10:54 77.4 °F 66.4 °F 30.06 in WNW 1.0 mph 4.0 mph 69% 0.00 in
10:59 77.4 °F 66.0 °F 30.06 in WNW 1.0 mph 3.0 mph 68% 0.00 in
11:04 77.5 °F 66.1 °F 30.06 in Calm   3.0 mph 68% 0.00 in
11:09 77.4 °F 66.0 °F 30.06 in WSW 2.0 mph 6.0 mph 68% 0.00 in
11:19 78.1 °F 66.2 °F 30.06 in WSW 2.0 mph 4.0 mph 67% 0.00 in
11:24 78.1 °F 65.4 °F 30.06 in Calm   3.0 mph 65% 0.00 in
11:29 78.5 °F 66.2 °F 30.06 in WSW 1.0 mph 3.0 mph 66% 0.00 in
11:34 79.3 °F 66.5 °F 30.06 in Calm   4.0 mph 65% 0.00 in
11:39 79.7 °F 66.4 °F 30.06 in WSW 1.0 mph 4.0 mph 64% 0.00 in
11:44 80.0 °F 67.2 °F 30.06 in WSW 1.0 mph 4.0 mph 65% 0.00 in
11:49 80.2 °F 67.4 °F 30.06 in WSW 2.0 mph 5.0 mph 65% 0.00 in
11:54 79.8 °F 66.1 °F 30.06 in SW 2.0 mph 5.0 mph 63% 0.00 in
11:59 79.6 °F 66.3 °F 30.06 in SSW 1.0 mph 5.0 mph 64% 0.00 in
12:04 80.1 °F 66.4 °F 30.06 in SW 1.0 mph 5.0 mph 63% 0.00 in
12:09 80.4 °F 67.1 °F 30.06 in WSW 2.0 mph 4.0 mph 64% 0.00 in
12:14 81.0 °F 66.3 °F 30.06 in Calm   5.0 mph 61% 0.00 in
12:19 80.9 °F 66.7 °F 30.06 in SSW 3.0 mph 5.0 mph 62% 0.00 in
12:24 81.3 °F 67.0 °F 30.05 in WSW 1.0 mph 4.0 mph 62% 0.00 in
12:29 81.0 °F 66.3 °F 30.06 in South 3.0 mph 5.0 mph 61% 0.00 in
12:34 80.9 °F 67.6 °F 30.05 in WSW 5.0 mph 7.0 mph 64% 0.00 in
12:39 81.4 °F 67.1 °F 30.05 in WSW 3.0 mph 7.0 mph 62% 0.00 in
12:44 81.1 °F 65.9 °F 30.05 in WSW 3.0 mph 7.0 mph 60% 0.00 in
12:49 81.5 °F 66.8 °F 30.05 in SSW 3.0 mph 7.0 mph 61% 0.00 in
12:54 81.4 °F 66.7 °F 30.05 in SSW 2.0 mph 5.0 mph 61% 0.00 in
12:59 81.9 °F 66.6 °F 30.05 in SW 2.0 mph 6.0 mph 60% 0.00 in
13:04 81.8 °F 67.5 °F 30.05 in WSW 2.0 mph 6.0 mph 62% 0.00 in
13:09 82.2 °F 67.4 °F 30.05 in WSW 2.0 mph 5.0 mph 61% 0.00 in
13:14 81.9 °F 67.1 °F 30.05 in WSW 3.0 mph 6.0 mph 61% 0.00 in
13:19 81.6 °F 66.8 °F 30.05 in WSW 5.0 mph 6.0 mph 61% 0.00 in
13:24 81.1 °F 66.4 °F 30.04 in WSW 1.0 mph 7.0 mph 61% 0.00 in
13:29 81.5 °F 67.2 °F 30.05 in West 2.0 mph 6.0 mph 62% 0.00 in
13:34 81.1 °F 66.4 °F 30.04 in West 5.0 mph 7.0 mph 61% 0.00 in
13:39 81.0 °F 65.8 °F 30.04 in WSW 4.0 mph 7.0 mph 60% 0.00 in
13:44 80.9 °F 66.2 °F 30.04 in WSW 3.0 mph 7.0 mph 61% 0.00 in
13:49 81.7 °F 67.4 °F 30.03 in WSW 3.0 mph 7.0 mph 62% 0.00 in
13:54 81.7 °F 66.5 °F 30.03 in West 3.0 mph 5.0 mph 60% 0.00 in
13:59 81.8 °F 66.6 °F 30.03 in West 4.0 mph 6.0 mph 60% 0.00 in
14:04 81.9 °F 65.7 °F 30.03 in WSW 4.0 mph 5.0 mph 58% 0.00 in
14:09 81.8 °F 65.6 °F 30.03 in South 2.0 mph 5.0 mph 58% 0.00 in
14:14 81.7 °F 65.5 °F 30.03 in SW 3.0 mph 6.0 mph 58% 0.00 in
14:19 81.5 °F 66.8 °F 30.02 in SW 2.0 mph 6.0 mph 61% 0.00 in
14:24 81.9 °F 65.7 °F 30.02 in WSW 2.0 mph 7.0 mph 58% 0.00 in
14:29 82.2 °F 66.4 °F 30.02 in West 3.0 mph 7.0 mph 59% 0.00 in
14:34 82.5 °F 66.2 °F 30.02 in WSW 3.0 mph 5.0 mph 58% 0.00 in
14:39 82.1 °F 65.4 °F 30.02 in West 4.0 mph 7.0 mph 57% 0.00 in
14:44 81.7 °F 66.0 °F 30.03 in NW 5.0 mph 5.0 mph 59% 0.00 in
14:49 81.6 °F 66.4 °F 30.02 in Calm   6.0 mph 60% 0.00 in
14:55 81.4 °F 66.2 °F 30.02 in West 2.0 mph 5.0 mph 60% 0.00 in
15:09 80.9 °F 64.7 °F 30.03 in West 2.0 mph 5.0 mph 58% 0.00 in
15:14 81.1 °F 65.4 °F 30.03 in West 2.0 mph 5.0 mph 59% 0.00 in
15:19 80.9 °F 64.2 °F 30.03 in West 2.0 mph 4.0 mph 57% 0.00 in
15:24 80.8 °F 64.6 °F 30.02 in WSW 1.0 mph 5.0 mph 58% 0.00 in
15:29 81.1 °F 65.9 °F 30.02 in WSW 1.0 mph 4.0 mph 60% 0.00 in
15:34 81.2 °F 65.0 °F 30.02 in WSW 1.0 mph 4.0 mph 58% 0.00 in
15:39 80.9 °F 65.2 °F 30.02 in SW 2.0 mph 4.0 mph 59% 0.00 in
15:44 80.9 °F 64.7 °F 30.02 in SW 1.0 mph 4.0 mph 58% 0.00 in
15:49 80.9 °F 65.2 °F 30.02 in Calm   4.0 mph 59% 0.00 in
15:54 80.9 °F 64.2 °F 30.02 in West 1.0 mph 4.0 mph 57% 0.00 in
15:59 80.6 °F 64.0 °F 30.02 in West 2.0 mph 4.0 mph 57% 0.00 in
16:04 80.5 °F 64.4 °F 30.02 in West 2.0 mph 4.0 mph 58% 0.00 in
16:09 80.6 °F 64.9 °F 30.02 in West 1.0 mph 4.0 mph 59% 0.00 in
16:14 80.4 °F 64.8 °F 30.02 in SW 3.0 mph 5.0 mph 59% 0.00 in
16:20 80.5 °F 65.3 °F 30.02 in WSW 2.0 mph 5.0 mph 60% 0.00 in
16:30 80.5 °F 65.8 °F 30.01 in SW 2.0 mph 5.0 mph 61% 0.00 in
16:35 80.5 °F 66.3 °F 30.01 in WSW 2.0 mph 5.0 mph 62% 0.00 in
16:39 80.5 °F 66.3 °F 30.01 in West 1.0 mph 4.0 mph 62% 0.00 in
16:44 80.5 °F 66.3 °F 30.01 in WNW 1.0 mph 5.0 mph 62% 0.00 in
16:49 80.3 °F 64.7 °F 30.01 in WNW 1.0 mph 5.0 mph 59% 0.00 in
16:54 80.2 °F 65.5 °F 30.01 in WNW 1.0 mph 4.0 mph 61% 0.00 in
16:59 80.1 °F 65.0 °F 30.01 in Calm   4.0 mph 60% 0.00 in
17:04 79.9 °F 64.8 °F 30.01 in WNW 1.0 mph 4.0 mph 60% 0.00 in
17:09 79.8 °F 64.7 °F 30.01 in Calm   3.0 mph 60% 0.00 in
17:14 79.8 °F 64.2 °F 30.01 in Calm   3.0 mph 59% 0.00 in
17:19 79.8 °F 64.7 °F 30.01 in West 3.0 mph 4.0 mph 60% 0.00 in
17:24 79.6 °F 65.0 °F 30.01 in West 1.0 mph 4.0 mph 61% 0.00 in
17:29 79.6 °F 64.0 °F 30.01 in West 2.0 mph 3.0 mph 59% 0.00 in
17:34 79.8 °F 63.7 °F 30.01 in West 1.0 mph 4.0 mph 58% 0.00 in
17:39 80.2 °F 64.6 °F 30.01 in WNW 1.0 mph 3.0 mph 59% 0.00 in
17:44 80.4 °F 64.3 °F 30.01 in West 2.0 mph 4.0 mph 58% 0.00 in
17:49 80.7 °F 64.5 °F 30.01 in West 2.0 mph 4.0 mph 58% 0.00 in
17:54 80.4 °F 65.2 °F 30.01 in WSW 1.0 mph 4.0 mph 60% 0.00 in
17:59 80.2 °F 64.6 °F 30.01 in West 1.0 mph 4.0 mph 59% 0.00 in
18:04 79.9 °F 64.3 °F 30.01 in Calm   4.0 mph 59% 0.00 in
18:09 79.8 °F 64.7 °F 30.01 in Calm   3.0 mph 60% 0.00 in
18:14 79.6 °F 64.0 °F 30.01 in West 1.0 mph 3.0 mph 59% 0.00 in
18:19 79.5 °F 63.9 °F 30.01 in Calm     59% 0.00 in
18:24 79.3 °F 64.2 °F 30.01 in Calm     60% 0.00 in
18:29 78.8 °F 64.2 °F 30.01 in Calm     61% 0.00 in
18:34 78.6 °F 64.0 °F 30.01 in Calm     61% 0.00 in
18:39 78.4 °F 63.8 °F 30.01 in Calm     61% 0.00 in
18:44 78.3 °F 63.7 °F 30.01 in Calm     61% 0.00 in
18:49 78.2 °F 64.6 °F 30.01 in Calm     63% 0.00 in
18:54 77.8 °F 64.6 °F 30.02 in Calm     64% 0.00 in
18:59 77.4 °F 65.1 °F 30.02 in Calm     66% 0.00 in
19:04 76.7 °F 65.3 °F 30.02 in Calm     68% 0.00 in
19:09 76.3 °F 65.8 °F 30.01 in Calm     70% 0.00 in
19:14 76.1 °F 66.0 °F 30.02 in Calm   3.0 mph 71% 0.00 in
19:19 75.8 °F 65.7 °F 30.02 in Calm   2.0 mph 71% 0.00 in
19:24 75.4 °F 66.1 °F 30.02 in Calm     73% 0.00 in
19:29 75.3 °F 66.0 °F 30.02 in Calm     73% 0.00 in
19:34 74.9 °F 65.7 °F 30.02 in Calm     73% 0.00 in
19:39 74.5 °F 65.7 °F 30.02 in Calm     74% 0.00 in
19:44 73.9 °F 65.5 °F 30.02 in Calm     75% 0.00 in
19:49 73.4 °F 65.4 °F 30.02 in Calm     76% 0.00 in
19:54 73.2 °F 65.2 °F 30.02 in Calm     76% 0.00 in
19:59 73.0 °F 65.0 °F 30.02 in Calm     76% 0.00 in
20:04 72.8 °F 65.2 °F 30.02 in Calm     77% 0.00 in
20:09 72.6 °F 65.0 °F 30.02 in Calm     77% 0.00 in
20:14 72.3 °F 65.1 °F 30.02 in Calm     78% 0.00 in
20:19 72.0 °F 65.1 °F 30.02 in Calm     79% 0.00 in
20:24 71.9 °F 65.0 °F 30.02 in Calm     79% 0.00 in
20:29 71.8 °F 64.9 °F 30.02 in Calm     79% 0.00 in
20:34 71.5 °F 65.0 °F 30.02 in Calm     80% 0.00 in
20:39 71.3 °F 64.8 °F 30.02 in Calm     80% 0.00 in
20:44 71.1 °F 65.0 °F 30.02 in Calm     81% 0.00 in
20:49 71.0 °F 64.9 °F 30.03 in Calm     81% 0.00 in
20:54 70.9 °F 64.8 °F 30.03 in Calm     81% 0.00 in
20:59 70.8 °F 64.7 °F 30.02 in Calm     81% 0.00 in
21:04 70.5 °F 64.7 °F 30.02 in Calm     82% 0.00 in
21:09 70.2 °F 64.4 °F 30.02 in Calm     82% 0.00 in
21:14 70.1 °F 64.3 °F 30.02 in Calm     82% 0.00 in
21:19 70.0 °F 64.6 °F 30.02 in Calm     83% 0.00 in
21:24 70.1 °F 64.7 °F 30.02 in Calm     83% 0.00 in
21:29 69.9 °F 64.5 °F 30.02 in Calm     83% 0.00 in
21:34 69.8 °F 64.4 °F 30.02 in Calm     83% 0.00 in
21:39 69.7 °F 64.6 °F 30.02 in Calm     84% 0.00 in
21:44 69.6 °F 64.5 °F 30.02 in Calm     84% 0.00 in
21:49 69.4 °F 64.7 °F 30.02 in Calm     85% 0.00 in
21:54 69.3 °F 64.6 °F 30.02 in Calm     85% 0.00 in
21:59 69.2 °F 64.5 °F 30.02 in Calm     85% 0.00 in
22:04 69.0 °F 64.3 °F 30.02 in Calm     85% 0.00 in
22:09 68.9 °F 64.2 °F 30.02 in Calm     85% 0.00 in
22:14 68.6 °F 64.2 °F 30.02 in Calm     86% 0.00 in
22:19 68.4 °F 64.0 °F 30.02 in Calm     86% 0.00 in
22:24 68.2 °F 63.9 °F 30.02 in Calm     86% 0.00 in
22:29 68.3 °F 64.3 °F 30.02 in Calm     87% 0.00 in
22:34 68.4 °F 64.4 °F 30.02 in Calm     87% 0.00 in
22:39 68.6 °F 64.6 °F 30.02 in Calm     87% 0.00 in
22:44 68.4 °F 64.0 °F 30.03 in Calm     86% 0.00 in
22:49 68.2 °F 63.9 °F 30.03 in Calm     86% 0.00 in
22:54 68.1 °F 64.1 °F 30.03 in Calm     87% 0.00 in
22:59 68.1 °F 64.1 °F 30.03 in Calm     87% 0.00 in
23:04 68.1 °F 64.1 °F 30.03 in Calm     87% 0.00 in
23:09 68.1 °F 64.1 °F 30.03 in Calm     87% 0.00 in
23:14 68.2 °F 64.2 °F 30.03 in Calm     87% 0.00 in
23:19 68.1 °F 64.1 °F 30.03 in Calm     87% 0.00 in
23:24 68.2 °F 64.2 °F 30.03 in Calm     87% 0.00 in
23:29 68.2 °F 64.2 °F 30.03 in Calm     87% 0.00 in
23:34 68.1 °F 64.1 °F 30.02 in Calm     87% 0.00 in
23:39 68.2 °F 64.2 °F 30.02 in Calm     87% 0.00 in
23:44 68.3 °F 64.3 °F 30.02 in Calm     87% 0.00 in
23:49 68.3 °F 64.3 °F 30.02 in Calm     87% 0.00 in
23:54 68.4 °F 64.7 °F 30.02 in Calm     88% 0.00 in
23:59 68.6 °F 64.9 °F 30.02 in Calm     88% 0.00 in
Buffalo, New York, USA
Compliments of Weather Underground - 2.5 mb